Time;durP1;ratioP1;P1;durP2;ratioP2;P2;SDS_P1;SDS_P2;PMS_P1;PMS_P2;Temp;Humidity;BMP_temperature;BMP_pressure;BME280_temperature;BME280_humidity;BME280_pressure;Samples;Min_cycle;Max_cycle;Signal;HPM_P1;HPM_P2
2021/03/11 00:00:10;;;;;;;27.30;22.05;;;6.70;99.90;;;;;;5045784;28;20229;-77
2021/03/11 00:02:41;;;;;;;29.38;22.25;;;6.70;99.90;;;;;;5044665;28;20699;-76
2021/03/11 00:05:10;;;;;;;31.45;21.88;;;6.70;99.90;;;;;;5045561;28;20668;-76
2021/03/11 00:07:37;;;;;;;30.98;21.67;;;6.60;99.90;;;;;;5046472;28;20223;-76
2021/03/11 00:10:07;;;;;;;31.88;24.05;;;6.50;99.90;;;;;;5041317;28;20623;-76
2021/03/11 00:12:34;;;;;;;30.33;24.20;;;6.60;99.90;;;;;;5054506;28;20212;-75
2021/03/11 00:15:01;;;;;;;33.58;23.85;;;6.50;99.90;;;;;;5044532;28;20203;-76
2021/03/11 00:17:28;;;;;;;30.10;22.27;;;6.50;99.90;;;;;;5049136;28;20199;-76
2021/03/11 00:19:55;;;;;;;31.50;23.60;;;6.50;99.90;;;;;;5045176;28;20199;-76
2021/03/11 00:22:22;;;;;;;31.30;23.48;;;6.60;99.90;;;;;;5048146;28;20191;-77
2021/03/11 00:24:49;;;;;;;30.00;22.10;;;6.50;99.90;;;;;;5052245;28;20310;-76
2021/03/11 00:27:16;;;;;;;30.27;23.52;;;6.50;99.90;;;;;;5048545;28;20284;-76
2021/03/11 00:29:43;;;;;;;27.77;22.42;;;6.40;99.90;;;;;;5048484;28;20679;-76
2021/03/11 00:32:11;;;;;;;29.55;22.80;;;6.40;99.90;;;;;;5046036;28;20249;-76
2021/03/11 00:34:37;;;;;;;30.35;22.17;;;6.40;99.90;;;;;;5045193;28;20694;-76
2021/03/11 00:37:04;;;;;;;30.45;22.20;;;6.40;99.90;;;;;;5042261;28;20262;-76
2021/03/11 00:39:31;;;;;;;32.17;23.08;;;6.40;99.90;;;;;;5045318;28;20202;-77
2021/03/11 00:41:58;;;;;;;34.30;23.90;;;6.30;99.90;;;;;;5043286;28;20675;-76
2021/03/11 00:44:26;;;;;;;31.50;22.73;;;6.30;99.90;;;;;;5046604;28;20502;-76
2021/03/11 00:46:53;;;;;;;28.77;21.90;;;6.20;99.90;;;;;;5050025;28;20237;-77
2021/03/11 00:49:20;;;;;;;30.25;22.33;;;6.10;99.90;;;;;;5047385;28;20196;-75
2021/03/11 00:51:46;;;;;;;29.45;22.80;;;6.10;99.90;;;;;;5045139;28;20199;-75
2021/03/11 00:54:13;;;;;;;29.50;21.05;;;6.10;99.90;;;;;;5049758;28;20697;-74
2021/03/11 00:56:40;;;;;;;32.65;23.88;;;6.10;99.90;;;;;;5052130;28;20672;-76
2021/03/11 00:59:07;;;;;;;31.30;23.52;;;6.00;99.90;;;;;;5051114;28;20208;-75
2021/03/11 01:01:34;;;;;;;28.00;23.23;;;6.00;99.90;;;;;;5051879;28;20192;-74
2021/03/11 01:04:02;;;;;;;29.95;22.00;;;6.10;99.90;;;;;;5050714;28;20230;-75
2021/03/11 01:06:28;;;;;;;25.65;20.13;;;6.00;99.90;;;;;;5050229;28;20293;-76
2021/03/11 01:08:55;;;;;;;32.40;22.67;;;6.00;99.90;;;;;;5049333;28;20285;-76
2021/03/11 01:11:22;;;;;;;28.73;22.80;;;6.00;99.90;;;;;;5050181;28;20200;-75
2021/03/11 01:13:49;;;;;;;33.33;23.33;;;6.00;99.90;;;;;;5049599;28;20238;-75
2021/03/11 01:16:15;;;;;;;30.63;22.52;;;6.00;99.90;;;;;;5049942;28;20195;-76
2021/03/11 01:18:44;;;;;;;29.63;21.65;;;6.00;99.90;;;;;;5067395;28;20262;-75
2021/03/11 01:21:10;;;;;;;30.95;24.00;;;6.10;99.90;;;;;;5068283;28;20211;-75
2021/03/11 01:23:37;;;;;;;32.15;24.52;;;6.30;99.90;;;;;;5050841;28;20222;-75
2021/03/11 01:26:04;;;;;;;32.88;23.63;;;6.10;99.90;;;;;;5050179;28;20302;-75
2021/03/11 01:28:30;;;;;;;28.85;22.75;;;6.00;99.90;;;;;;5051353;28;20221;-75
2021/03/11 01:30:57;;;;;;;30.33;22.90;;;6.00;99.90;;;;;;5050583;28;20230;-76
2021/03/11 01:33:24;;;;;;;27.67;21.05;;;6.00;99.90;;;;;;5050990;28;20219;-76
2021/03/11 01:35:52;;;;;;;27.70;20.25;;;6.00;99.90;;;;;;5052792;28;20198;-75
2021/03/11 01:38:19;;;;;;;29.30;21.67;;;6.10;99.90;;;;;;5054915;28;20195;-75
2021/03/11 01:40:45;;;;;;;27.65;20.80;;;6.10;99.90;;;;;;5057764;28;20286;-75
2021/03/11 01:43:12;;;;;;;25.05;20.17;;;6.10;99.90;;;;;;5051111;28;20254;-74
2021/03/11 01:45:39;;;;;;;24.25;18.65;;;6.10;99.90;;;;;;5053708;28;20233;-75
2021/03/11 01:48:09;;;;;;;24.50;19.27;;;6.10;99.90;;;;;;5057884;28;20198;-75
2021/03/11 01:50:35;;;;;;;27.17;19.33;;;6.20;99.90;;;;;;5051012;28;20271;-75
2021/03/11 01:53:03;;;;;;;25.60;20.48;;;6.20;99.90;;;;;;5064802;28;20245;-75
2021/03/11 01:55:30;;;;;;;27.10;18.73;;;6.20;99.90;;;;;;5050695;28;20203;-75
2021/03/11 01:57:58;;;;;;;22.75;18.55;;;6.20;99.90;;;;;;5056630;28;20432;-75
2021/03/11 02:00:26;;;;;;;26.40;19.23;;;6.20;99.90;;;;;;5063456;28;20190;-75
2021/03/11 02:02:53;;;;;;;22.10;18.00;;;6.30;99.90;;;;;;5062817;28;20573;-75
2021/03/11 02:05:22;;;;;;;24.20;17.63;;;6.30;99.90;;;;;;5053759;28;20221;-75
2021/03/11 02:07:49;;;;;;;23.38;18.45;;;6.30;99.90;;;;;;5054595;28;20204;-74
2021/03/11 02:10:21;;;;;;;23.75;18.58;;;6.40;99.90;;;;;;5062570;28;20202;-77
2021/03/11 02:12:59;;;;;;;21.00;17.95;;;6.40;99.90;;;;;;5055927;28;20231;-74
2021/03/11 02:15:29;;;;;;;24.33;18.38;;;6.40;99.90;;;;;;5054869;28;20183;-74
2021/03/11 02:18:03;;;;;;;22.43;17.60;;;6.40;99.90;;;;;;5054297;28;20207;-75
2021/03/11 02:20:51;;;;;;;27.05;20.73;;;6.50;99.90;;;;;;5053560;28;20222;-75
2021/03/11 02:23:32;;;;;;;24.97;18.40;;;6.60;99.90;;;;;;5056243;28;20208;-74
2021/03/11 02:26:10;;;;;;;22.15;17.80;;;6.60;99.90;;;;;;5064487;28;20593;-74
2021/03/11 02:28:53;;;;;;;27.00;17.98;;;6.70;99.90;;;;;;5058459;28;20221;-74
2021/03/11 02:31:21;;;;;;;21.33;19.02;;;6.70;99.90;;;;;;5054529;28;20329;-75
2021/03/11 02:33:49;;;;;;;24.08;17.33;;;6.80;99.90;;;;;;5054020;28;20628;-74
2021/03/11 02:36:16;;;;;;;20.75;17.05;;;6.90;99.90;;;;;;5062385;28;20191;-74
2021/03/11 02:38:45;;;;;;;23.15;18.67;;;6.90;99.90;;;;;;5065701;28;20205;-74
2021/03/11 02:41:14;;;;;;;24.25;18.23;;;6.90;99.90;;;;;;5056603;28;20666;-75
2021/03/11 02:43:41;;;;;;;21.58;17.60;;;6.90;99.90;;;;;;5057257;28;20222;-75
2021/03/11 02:46:09;;;;;;;20.15;17.50;;;7.00;99.90;;;;;;5062672;28;20226;-75
2021/03/11 02:48:37;;;;;;;27.88;19.70;;;6.90;99.90;;;;;;5052809;28;20238;-75
2021/03/11 02:51:04;;;;;;;22.67;17.27;;;6.90;99.90;;;;;;5054021;28;20232;-75
2021/03/11 02:53:31;;;;;;;22.70;17.02;;;6.90;99.90;;;;;;5054831;28;20215;-75
2021/03/11 02:56:00;;;;;;;18.98;16.73;;;7.00;99.90;;;;;;5052516;28;20192;-75
2021/03/11 02:58:27;;;;;;;21.23;18.27;;;7.00;99.90;;;;;;5054955;28;20210;-75
2021/03/11 03:00:55;;;;;;;23.05;17.48;;;7.00;99.90;;;;;;5053867;28;20202;-75
2021/03/11 03:03:23;;;;;;;21.85;17.35;;;7.00;99.90;;;;;;5053734;28;20818;-76
2021/03/11 03:05:52;;;;;;;22.20;17.37;;;6.90;99.90;;;;;;5053644;28;20273;-75
2021/03/11 03:08:19;;;;;;;22.10;16.67;;;6.90;99.90;;;;;;5052696;28;20698;-76
2021/03/11 03:10:47;;;;;;;23.33;18.60;;;7.00;99.90;;;;;;5053631;28;20222;-75
2021/03/11 03:13:17;;;;;;;26.60;19.52;;;6.80;99.90;;;;;;5041269;28;20208;-76
2021/03/11 03:15:44;;;;;;;22.25;17.52;;;6.80;99.90;;;;;;5034880;28;20180;-75
2021/03/11 03:18:13;;;;;;;23.48;18.05;;;6.70;99.90;;;;;;5053381;28;20198;-75
2021/03/11 03:20:41;;;;;;;23.10;18.38;;;6.80;99.90;;;;;;5053100;28;20188;-74
2021/03/11 03:23:08;;;;;;;26.48;17.92;;;6.80;99.90;;;;;;5053048;28;20219;-75
2021/03/11 03:25:35;;;;;;;33.25;19.95;;;6.70;99.90;;;;;;5053162;28;20265;-76
2021/03/11 03:28:02;;;;;;;21.33;17.60;;;6.80;99.90;;;;;;5051907;28;20286;-75
2021/03/11 03:30:29;;;;;;;24.75;18.70;;;6.90;99.90;;;;;;5051777;28;20693;-75
2021/03/11 03:32:56;;;;;;;19.65;16.40;;;6.90;99.90;;;;;;5051532;28;20191;-76
2021/03/11 03:35:23;;;;;;;23.75;19.15;;;6.90;99.90;;;;;;5051753;28;20199;-75
2021/03/11 03:37:53;;;;;;;20.35;18.15;;;6.90;99.90;;;;;;5044402;28;20202;-76
2021/03/11 03:40:22;;;;;;;25.40;18.48;;;7.00;99.90;;;;;;5052477;28;20624;-76
2021/03/11 03:42:53;;;;;;;23.30;16.80;;;7.00;99.90;;;;;;5053041;28;20200;-75
2021/03/11 03:45:24;;;;;;;21.33;16.77;;;7.00;99.90;;;;;;5052803;28;20212;-78
2021/03/11 03:47:51;;;;;;;21.20;16.90;;;7.00;99.90;;;;;;5052146;28;20195;-76
2021/03/11 03:50:20;;;;;;;21.40;18.20;;;7.10;99.90;;;;;;5050959;28;20196;-76
2021/03/11 03:52:48;;;;;;;22.67;18.27;;;7.10;99.90;;;;;;5051951;28;20223;-75
2021/03/11 03:55:16;;;;;;;26.92;18.58;;;7.10;99.90;;;;;;5051402;28;20192;-75
2021/03/11 03:57:47;;;;;;;22.90;17.17;;;7.10;99.90;;;;;;5050252;28;20595;-76
2021/03/11 04:00:16;;;;;;;18.70;16.33;;;7.30;99.90;;;;;;5046124;28;20690;-75
2021/03/11 04:02:45;;;;;;;18.00;15.95;;;7.10;99.90;;;;;;5051331;28;20223;-76
2021/03/11 04:05:11;;;;;;;18.63;14.80;;;7.20;99.90;;;;;;5052643;28;20302;-76
2021/03/11 04:07:39;;;;;;;18.55;16.15;;;7.30;99.90;;;;;;5051289;28;20210;-76
2021/03/11 04:10:07;;;;;;;15.85;13.82;;;7.30;99.90;;;;;;5051622;28;20191;-75
2021/03/11 04:12:37;;;;;;;20.52;15.20;;;;;;;;;;5052071;28;20208;-77
2021/03/11 04:15:06;;;;;;;23.70;14.75;;;7.40;99.90;;;;;;5052231;28;20222;-75
2021/03/11 04:17:34;;;;;;;18.65;14.25;;;7.40;99.90;;;;;;5054529;28;20187;-77
2021/03/11 04:20:03;;;;;;;16.15;14.00;;;7.70;99.90;;;;;;5051402;28;20702;-77
2021/03/11 04:22:32;;;;;;;17.42;13.88;;;7.40;99.90;;;;;;5050748;28;20223;-77
2021/03/11 04:25:00;;;;;;;17.67;14.07;;;7.30;99.90;;;;;;5050838;28;20238;-77
2021/03/11 04:27:27;;;;;;;18.02;15.20;;;7.50;99.90;;;;;;5052254;28;20215;-77
2021/03/11 04:29:56;;;;;;;17.23;14.70;;;7.40;99.90;;;;;;5051850;28;20196;-75
2021/03/11 04:32:23;;;;;;;16.80;13.73;;;7.40;99.90;;;;;;5051631;28;20183;-76
2021/03/11 04:34:49;;;;;;;20.30;14.43;;;7.50;99.90;;;;;;5045150;28;20283;-76
2021/03/11 04:37:17;;;;;;;17.80;14.70;;;7.60;99.90;;;;;;5067321;28;20280;-75
2021/03/11 04:39:45;;;;;;;17.65;13.80;;;7.70;99.90;;;;;;5051182;28;20207;-75
2021/03/11 04:42:12;;;;;;;18.90;14.65;;;7.70;99.90;;;;;;5045131;28;20206;-75
2021/03/11 04:44:41;;;;;;;17.17;14.13;;;7.80;99.90;;;;;;5051945;28;20230;-75
2021/03/11 04:47:10;;;;;;;16.92;14.80;;;8.00;99.90;;;;;;5051552;28;20227;-75
2021/03/11 04:49:38;;;;;;;20.33;13.20;;;7.80;99.90;;;;;;5051202;28;20194;-76
2021/03/11 04:52:08;;;;;;;15.65;13.45;;;7.80;99.90;;;;;;5050035;28;20199;-76
2021/03/11 04:54:34;;;;;;;13.43;12.02;;;7.80;99.90;;;;;;5050585;28;20218;-75
2021/03/11 04:57:02;;;;;;;13.90;12.30;;;7.80;99.90;;;;;;5051018;28;20195;-75
2021/03/11 04:59:30;;;;;;;13.25;11.57;;;7.80;99.90;;;;;;5043561;28;20729;-75
2021/03/11 05:01:58;;;;;;;15.18;12.23;;;7.60;99.90;;;;;;5036130;28;20336;-76
2021/03/11 05:04:27;;;;;;;14.43;12.85;;;7.80;99.90;;;;;;5049152;28;20657;-75
2021/03/11 05:06:54;;;;;;;15.07;12.13;;;7.80;99.90;;;;;;5045721;28;20609;-76
2021/03/11 05:09:21;;;;;;;15.48;12.75;;;7.80;99.90;;;;;;5037314;28;20572;-75
2021/03/11 05:11:48;;;;;;;15.93;13.20;;;7.70;99.90;;;;;;5051727;28;20201;-75
2021/03/11 05:14:15;;;;;;;17.75;12.43;;;7.80;99.90;;;;;;5048915;28;20226;-75
2021/03/11 05:16:42;;;;;;;16.23;12.68;;;7.70;99.90;;;;;;5050519;28;20578;-75
2021/03/11 05:19:10;;;;;;;16.25;12.98;;;7.50;99.90;;;;;;5051577;28;20206;-75
2021/03/11 05:21:38;;;;;;;14.82;13.15;;;7.40;99.90;;;;;;5049503;28;20199;-75
2021/03/11 05:24:06;;;;;;;17.25;12.93;;;7.30;99.90;;;;;;5056325;28;20215;-74
2021/03/11 05:26:33;;;;;;;13.55;11.15;;;7.30;99.90;;;;;;5054373;28;20238;-74
2021/03/11 05:29:13;;;;;;;18.67;13.05;;;7.30;99.90;;;;;;5130903;27;20585;-77
2021/03/11 05:31:39;;;;;;;14.00;11.65;;;7.50;99.90;;;;;;5132706;28;20671;-78
2021/03/11 05:34:06;;;;;;;15.70;12.82;;;7.50;99.90;;;;;;5131791;28;20219;-77
2021/03/11 05:36:33;;;;;;;14.77;12.13;;;7.60;99.90;;;;;;5128558;27;20179;-77
2021/03/11 05:39:02;;;;;;;12.65;10.90;;;7.80;99.90;;;;;;5130498;28;20193;-78
2021/03/11 05:41:29;;;;;;;14.07;11.68;;;7.60;99.90;;;;;;5108966;28;20645;-75
2021/03/11 05:43:57;;;;;;;17.55;11.95;;;7.60;99.90;;;;;;5092536;28;20209;-76
2021/03/11 05:46:24;;;;;;;12.85;11.23;;;7.60;99.90;;;;;;5127582;28;20574;-75
2021/03/11 05:48:54;;;;;;;13.02;10.93;;;7.60;99.90;;;;;;5108335;28;20222;-76
2021/03/11 05:51:20;;;;;;;13.23;11.60;;;7.60;99.90;;;;;;5117612;28;20185;-76
2021/03/11 05:53:47;;;;;;;15.32;12.48;;;7.50;99.90;;;;;;5109539;28;20259;-76
2021/03/11 05:56:14;;;;;;;12.88;10.82;;;7.40;99.90;;;;;;5110169;28;20214;-76
2021/03/11 05:58:41;;;;;;;14.52;12.38;;;7.30;99.90;;;;;;5112109;28;20195;-76
2021/03/11 06:01:08;;;;;;;15.80;12.63;;;7.20;99.90;;;;;;5114825;28;20273;-75
2021/03/11 06:03:36;;;;;;;15.65;12.85;;;7.10;99.90;;;;;;5124644;27;20216;-76
2021/03/11 06:06:04;;;;;;;18.77;14.38;;;7.10;99.90;;;;;;5119770;28;20212;-76
2021/03/11 06:08:32;;;;;;;22.85;15.50;;;6.90;99.90;;;;;;5125696;27;20262;-77
2021/03/11 06:11:00;;;;;;;18.40;14.50;;;7.00;99.90;;;;;;5116950;28;20246;-76
2021/03/11 06:13:29;;;;;;;21.58;15.82;;;7.00;99.90;;;;;;5110376;28;20221;-77
2021/03/11 06:15:59;;;;;;;21.17;14.75;;;7.00;99.90;;;;;;5119128;27;20197;-77
2021/03/11 06:18:26;;;;;;;21.63;16.10;;;7.00;99.90;;;;;;5107706;28;20213;-77
2021/03/11 06:20:54;;;;;;;21.00;15.68;;;6.90;99.90;;;;;;5116146;28;20185;-76
2021/03/11 06:23:21;;;;;;;19.10;16.15;;;6.90;99.90;;;;;;5112794;28;20222;-77
2021/03/11 06:25:51;;;;;;;21.05;15.60;;;6.90;99.90;;;;;;5116978;27;20542;-76
2021/03/11 06:28:17;;;;;;;20.58;16.52;;;7.00;99.90;;;;;;5127754;28;20209;-77
2021/03/11 06:30:44;;;;;;;21.10;17.00;;;7.00;99.90;;;;;;5118394;27;20602;-76
2021/03/11 06:33:11;;;;;;;19.80;15.63;;;7.00;99.90;;;;;;5119105;28;20213;-77
2021/03/11 06:35:38;;;;;;;19.20;15.55;;;7.10;99.90;;;;;;5110836;27;20665;-76
2021/03/11 06:38:06;;;;;;;21.35;16.08;;;7.10;99.90;;;;;;5119540;28;20193;-76
2021/03/11 06:40:32;;;;;;;23.08;18.23;;;7.10;99.90;;;;;;5102767;27;20235;-76
2021/03/11 06:43:08;;;;;;;21.25;16.25;;;7.20;99.90;;;;;;5114399;28;20194;-76
2021/03/11 06:45:35;;;;;;;21.80;16.10;;;7.30;99.90;;;;;;5114838;28;20197;-77
2021/03/11 06:48:24;;;;;;;21.60;16.17;;;7.30;99.90;;;;;;5098246;28;20241;-77
2021/03/11 06:50:51;;;;;;;20.88;16.95;;;7.20;99.90;;;;;;5104936;28;20217;-76
2021/03/11 06:53:19;;;;;;;23.10;16.70;;;7.10;99.90;;;;;;5110835;28;20214;-77
2021/03/11 06:55:46;;;;;;;23.95;19.55;;;7.10;99.90;;;;;;5113738;28;20276;-76
2021/03/11 06:58:17;;;;;;;23.58;17.10;;;7.20;99.90;;;;;;5113455;28;20276;-76
2021/03/11 07:00:44;;;;;;;23.17;18.70;;;7.10;99.90;;;;;;5103536;28;20224;-77
2021/03/11 07:03:10;;;;;;;20.45;16.25;;;7.10;99.90;;;;;;5106452;28;20633;-76
2021/03/11 07:05:39;;;;;;;22.23;17.15;;;7.10;99.90;;;;;;5093839;28;20291;-77
2021/03/11 07:08:07;;;;;;;22.98;17.33;;;7.20;99.90;;;;;;5098688;28;20768;-76
2021/03/11 07:10:36;;;;;;;22.55;17.65;;;7.30;99.90;;;;;;5102502;28;20473;-76
2021/03/11 07:13:04;;;;;;;24.52;18.10;;;7.30;99.90;;;;;;5094569;28;20220;-76
2021/03/11 07:15:33;;;;;;;22.17;16.45;;;7.30;99.90;;;;;;5096066;28;20186;-76
2021/03/11 07:18:02;;;;;;;18.85;15.70;;;7.40;99.90;;;;;;5102623;28;20197;-77
2021/03/11 07:20:31;;;;;;;23.10;16.40;;;7.40;99.90;;;;;;5112042;28;20186;-76
2021/03/11 07:23:06;;;;;;;18.67;14.95;;;7.50;99.90;;;;;;5107053;28;20736;-76
2021/03/11 07:25:36;;;;;;;20.67;14.70;;;7.60;99.90;;;;;;5100991;28;20198;-76
2021/03/11 07:28:04;;;;;;;17.38;13.85;;;7.60;99.90;;;;;;5085700;28;20220;-76
2021/03/11 07:30:32;;;;;;;19.42;14.38;;;7.70;99.90;;;;;;5102477;28;20634;-76
2021/03/11 07:33:07;;;;;;;16.45;12.82;;;7.70;99.90;;;;;;5108227;28;20654;-76
2021/03/11 07:35:35;;;;;;;15.52;12.40;;;7.70;99.90;;;;;;5110301;28;20198;-76
2021/03/11 07:38:02;;;;;;;16.63;13.05;;;7.70;99.90;;;;;;5096582;28;20225;-76
2021/03/11 07:40:33;;;;;;;15.68;11.48;;;7.80;99.90;;;;;;5115077;28;20199;-79
2021/03/11 07:43:01;;;;;;;15.40;12.48;;;7.80;99.90;;;;;;5108458;28;20229;-79
2021/03/11 07:45:29;;;;;;;14.30;11.75;;;8.00;99.90;;;;;;5097017;28;20202;-81
2021/03/11 07:47:56;;;;;;;15.32;10.70;;;8.00;99.90;;;;;;5108893;28;20565;-81
2021/03/11 07:50:23;;;;;;;15.70;11.00;;;8.00;99.90;;;;;;5124520;28;20255;-80
2021/03/11 07:52:51;;;;;;;13.35;10.93;;;8.00;99.90;;;;;;5118922;28;20620;-79
2021/03/11 07:55:18;;;;;;;11.80;10.13;;;8.10;99.90;;;;;;5116557;28;20683;-79
2021/03/11 07:57:47;;;;;;;11.60;10.25;;;8.10;99.90;;;;;;5117085;28;20263;-80
2021/03/11 08:00:16;;;;;;;11.43;9.43;;;8.20;99.90;;;;;;5115717;28;20192;-78
2021/03/11 08:02:50;;;;;;;11.20;10.02;;;8.30;99.90;;;;;;5111921;28;20225;-82
2021/03/11 08:05:25;;;;;;;13.18;9.57;;;8.30;99.90;;;;;;5098522;28;20659;-82
2021/03/11 08:08:17;;;;;;;10.82;9.65;;;8.30;99.90;;;;;;5110170;28;20213;-81
2021/03/11 08:10:46;;;;;;;9.55;7.63;;;8.30;99.90;;;;;;5118384;28;20229;-81
2021/03/11 08:13:29;;;;;;;9.50;8.45;;;8.30;99.90;;;;;;5120415;27;20284;-81
2021/03/11 08:15:59;;;;;;;11.20;7.80;;;8.50;99.90;;;;;;5118886;28;20222;-81
2021/03/11 08:18:45;;;;;;;8.52;7.63;;;8.50;99.90;;;;;;5103650;27;20193;-81
2021/03/11 08:21:45;;;;;;;9.20;7.65;;;8.60;99.90;;;;;;5097341;28;20193;-82
2021/03/11 08:24:41;;;;;;;8.02;7.07;;;8.60;99.90;;;;;;5014627;28;20223;-82
2021/03/11 08:27:42;;;;;;;10.63;6.28;;;8.70;99.90;;;;;;5002022;28;20208;-82
2021/03/11 08:30:49;;;;;;;8.07;5.65;;;8.70;99.90;;;;;;5088341;28;20212;-81
2021/03/11 08:33:55;;;;;;;6.82;5.88;;;8.70;99.90;;;;;;5122880;28;20220;-82
2021/03/11 08:36:37;;;;;;;5.95;5.35;;;8.80;99.90;;;;;;5119478;28;20356;-81
2021/03/11 08:39:36;;;;;;;8.80;7.95;;;8.90;99.90;;;;;;5118708;27;20208;-82
2021/03/11 08:42:45;;;;;;;5.68;5.18;;;8.90;99.90;;;;;;5133725;27;20209;-83
2021/03/11 08:45:14;;;;;;;8.57;6.43;;;9.00;99.90;;;;;;5132785;28;20175;-83
2021/03/11 08:48:12;;;;;;;6.53;5.93;;;9.00;99.90;;;;;;5117919;28;20248;-81
2021/03/11 08:50:40;;;;;;;5.95;5.38;;;9.00;99.90;;;;;;5113701;28;20201;-82
2021/03/11 08:53:08;;;;;;;6.15;5.55;;;9.00;99.90;;;;;;5134497;27;20224;-82
2021/03/11 08:55:39;;;;;;;7.07;6.40;;;8.90;99.90;;;;;;5124641;27;20194;-83
2021/03/11 08:58:24;;;;;;;6.20;5.32;;;9.00;99.90;;;;;;5128279;27;20201;-83
2021/03/11 09:00:58;;;;;;;7.28;6.05;;;9.10;99.90;;;;;;5124824;28;20193;-83
2021/03/11 09:03:39;;;;;;;6.72;5.60;;;9.20;99.90;;;;;;5129107;28;20224;-82
2021/03/11 09:06:09;;;;;;;6.60;4.93;;;9.10;99.90;;;;;;5117223;28;20203;-82
2021/03/11 09:08:44;;;;;;;5.25;4.78;;;9.30;99.90;;;;;;5117370;28;20212;-81
2021/03/11 09:11:13;;;;;;;5.57;5.00;;;9.20;99.90;;;;;;5119869;27;20220;-81
2021/03/11 09:13:41;;;;;;;5.07;4.57;;;9.30;99.90;;;;;;5124427;27;20205;-83
2021/03/11 09:16:08;;;;;;;6.25;5.60;;;9.20;99.90;;;;;;5136894;28;20185;-83
2021/03/11 09:18:36;;;;;;;5.80;5.20;;;9.10;99.90;;;;;;5117916;28;20319;-85
2021/03/11 09:21:05;;;;;;;4.88;4.45;;;9.00;99.90;;;;;;5117031;28;20181;-84
2021/03/11 09:23:40;;;;;;;5.65;4.50;;;9.00;99.90;;;;;;5109635;28;20222;-83
2021/03/11 09:26:22;;;;;;;5.72;4.57;;;9.10;99.90;;;;;;5121993;28;20219;-83
2021/03/11 09:28:49;;;;;;;5.20;4.78;;;9.10;99.90;;;;;;5134829;28;20226;-84
2021/03/11 09:31:21;;;;;;;5.95;4.82;;;9.20;99.90;;;;;;5130033;28;20201;-83
2021/03/11 09:33:48;;;;;;;5.35;4.85;;;9.30;99.90;;;;;;5128265;28;20221;-82
2021/03/11 09:36:16;;;;;;;4.15;3.72;;;9.50;99.90;;;;;;5125186;28;20266;-83
2021/03/11 09:38:44;;;;;;;4.63;4.20;;;9.70;99.90;;;;;;5109584;28;20188;-82
2021/03/11 09:41:11;;;;;;;4.05;3.65;;;9.80;99.90;;;;;;5133284;28;20172;-82
2021/03/11 09:43:39;;;;;;;4.32;3.28;;;10.00;99.90;;;;;;5137735;27;20228;-81
2021/03/11 09:46:09;;;;;;;4.18;3.65;;;10.20;99.90;;;;;;5128972;28;20183;-83
2021/03/11 09:48:38;;;;;;;4.60;3.70;;;10.40;99.90;;;;;;5111679;28;20231;-81
2021/03/11 09:51:07;;;;;;;5.60;3.30;;;10.60;99.90;;;;;;5111077;28;20250;-82
2021/03/11 09:53:40;;;;;;;5.28;4.45;;;10.70;99.90;;;;;;5110469;28;20220;-81
2021/03/11 09:56:17;;;;;;;3.42;3.05;;;11.00;99.90;;;;;;5111003;28;20201;-81
2021/03/11 09:58:46;;;;;;;6.25;3.58;;;11.30;99.90;;;;;;5084125;28;20189;-81
2021/03/11 10:01:24;;;;;;;2.72;2.47;;;11.50;99.90;;;;;;5090616;28;20748;-80
2021/03/11 10:03:51;;;;;;;3.72;2.92;;;11.60;99.90;;;;;;5085766;28;20287;-80
2021/03/11 10:06:20;;;;;;;3.90;3.03;;;11.90;99.90;;;;;;5108072;28;20194;-80
2021/03/11 10:08:47;;;;;;;2.72;2.47;;;11.90;99.90;;;;;;5096711;28;20241;-81
2021/03/11 10:11:17;;;;;;;2.67;2.47;;;12.00;99.90;;;;;;5095393;28;20206;-81
2021/03/11 10:13:50;;;;;;;3.90;2.90;;;12.20;99.90;;;;;;5111253;28;20216;-82
2021/03/11 10:16:20;;;;;;;5.18;2.60;;;12.40;99.90;;;;;;5110282;28;20211;-82
2021/03/11 10:19:05;;;;;;;4.45;2.50;;;12.20;99.90;;;;;;5120290;28;20196;-82
2021/03/11 10:21:44;;;;;;;1.98;1.80;;;12.10;99.90;;;;;;5126099;28;20225;-82
2021/03/11 10:24:11;;;;;;;2.58;2.05;;;12.30;99.90;;;;;;5111860;28;20264;-82
2021/03/11 10:26:39;;;;;;;2.22;2.00;;;12.30;99.90;;;;;;5127775;28;20204;-81
2021/03/11 10:29:11;;;;;;;3.30;1.90;;;12.20;99.90;;;;;;5123213;28;20232;-81
2021/03/11 10:31:38;;;;;;;1.83;1.70;;;12.50;99.90;;;;;;5124531;28;20694;-81
2021/03/11 10:34:06;;;;;;;4.20;2.60;;;12.20;99.90;;;;;;5121298;28;20717;-81
2021/03/11 10:36:34;;;;;;;2.65;2.45;;;12.00;99.90;;;;;;5127439;28;20204;-82
2021/03/11 10:39:12;;;;;;;3.50;1.70;;;11.80;99.90;;;;;;5125552;28;20216;-81
2021/03/11 10:41:55;;;;;;;2.75;1.92;;;11.70;99.90;;;;;;5112693;28;20603;-82
2021/03/11 10:44:23;;;;;;;1.85;1.75;;;11.80;99.90;;;;;;5109993;28;20210;-81
2021/03/11 10:46:49;;;;;;;4.68;2.28;;;12.00;99.90;;;;;;5116064;28;20245;-81
2021/03/11 10:49:16;;;;;;;3.28;1.80;;;12.40;99.90;;;;;;5120855;28;20311;-81
2021/03/11 10:51:44;;;;;;;2.47;1.65;;;12.00;99.90;;;;;;5109714;28;20289;-81
2021/03/11 10:54:29;;;;;;;3.90;1.95;;;11.80;99.90;;;;;;5086390;28;20221;-82
2021/03/11 10:57:11;;;;;;;3.72;2.13;;;11.70;99.90;;;;;;5114453;28;20250;-81
2021/03/11 10:59:55;;;;;;;5.43;2.60;;;11.00;99.90;;;;;;5117435;28;20203;-82
2021/03/11 11:02:25;;;;;;;3.97;2.65;;;10.40;99.90;;;;;;5128661;28;20211;-82
2021/03/11 11:04:52;;;;;;;3.22;2.33;;;10.20;99.90;;;;;;5124922;28;20225;-82
2021/03/11 11:07:20;;;;;;;4.00;3.60;;;10.10;99.90;;;;;;5111756;28;20222;-81
2021/03/11 11:09:47;;;;;;;3.97;2.90;;;10.20;99.90;;;;;;5118949;28;20272;-81
2021/03/11 11:12:18;;;;;;;4.80;3.25;;;10.20;99.90;;;;;;5098741;28;20197;-81
2021/03/11 11:14:46;;;;;;;3.60;2.75;;;10.40;99.90;;;;;;5129980;27;20213;-82
2021/03/11 11:17:13;;;;;;;2.47;2.00;;;10.60;99.90;;;;;;5114511;28;20194;-82
2021/03/11 11:19:41;;;;;;;1.42;1.33;;;10.60;99.90;;;;;;5116285;28;20201;-81
2021/03/11 11:22:09;;;;;;;3.65;1.50;;;10.70;99.90;;;;;;5113761;28;20272;-81
2021/03/11 11:24:35;;;;;;;4.63;1.35;;;10.70;99.90;;;;;;5112022;28;20238;-82
2021/03/11 11:27:02;;;;;;;2.22;1.48;;;10.70;99.90;;;;;;5111104;28;20211;-81
2021/03/11 11:29:30;;;;;;;3.08;1.40;;;10.80;99.90;;;;;;5116557;28;20228;-82
2021/03/11 11:31:57;;;;;;;3.70;1.20;;;11.10;99.90;;;;;;5112571;28;20202;-80
2021/03/11 11:34:24;;;;;;;2.00;1.30;;;11.20;99.90;;;;;;5103393;28;20250;-81
2021/03/11 11:36:51;;;;;;;4.25;1.17;;;14.70;99.90;;;;;;5114560;28;20203;-82
2021/03/11 11:39:18;;;;;;;4.95;1.60;;;14.70;99.90;;;;;;5098501;28;20202;-82
2021/03/11 11:41:45;;;;;;;4.22;1.40;;;15.10;99.90;;;;;;5109716;28;20198;-83
2021/03/11 11:44:12;;;;;;;2.60;1.30;;;16.00;99.90;;;;;;5118200;28;20223;-81
2021/03/11 11:46:41;;;;;;;1.88;1.30;;;14.40;99.90;;;;;;5119554;28;20196;-82
2021/03/11 11:49:08;;;;;;;5.13;1.48;;;13.80;99.90;;;;;;5105222;28;20209;-82
2021/03/11 11:51:35;;;;;;;6.53;2.83;;;13.10;99.90;;;;;;5106119;28;20199;-82
2021/03/11 11:54:02;;;;;;;5.05;2.10;;;12.70;99.90;;;;;;5102378;28;20228;-82
2021/03/11 11:56:28;;;;;;;3.03;1.73;;;12.70;99.90;;;;;;5110648;28;20711;-82
2021/03/11 11:58:55;;;;;;;7.72;2.55;;;12.90;99.90;;;;;;5113576;28;20576;-81
2021/03/11 12:01:22;;;;;;;3.08;1.85;;;12.80;99.90;;;;;;5110380;28;20291;-82
2021/03/11 12:03:49;;;;;;;4.47;2.35;;;12.80;99.90;;;;;;5117090;27;20229;-82
2021/03/11 12:06:16;;;;;;;4.38;2.50;;;12.90;99.90;;;;;;5106881;27;20204;-82
2021/03/11 12:08:43;;;;;;;5.07;1.63;;;13.30;99.90;;;;;;5126309;27;20215;-82
2021/03/11 12:11:09;;;;;;;8.48;2.20;;;13.60;99.90;;;;;;5122755;27;20271;-82
2021/03/11 12:13:36;;;;;;;7.28;2.60;;;13.70;99.90;;;;;;5110574;28;20647;-81
2021/03/11 12:16:04;;;;;;;5.95;2.28;;;13.80;99.90;;;;;;5097750;28;20240;-80
2021/03/11 12:18:30;;;;;;;3.95;2.65;;;13.80;99.90;;;;;;5124149;27;20195;-81
2021/03/11 12:20:58;;;;;;;5.85;2.22;;;13.80;99.90;;;;;;5113108;28;20206;-81
2021/03/11 12:23:25;;;;;;;6.55;2.40;;;13.70;99.90;;;;;;5117952;27;20247;-82
2021/03/11 12:25:52;;;;;;;6.32;3.00;;;13.90;99.90;;;;;;5118305;27;20225;-82
2021/03/11 12:28:19;;;;;;;6.72;2.17;;;13.50;99.90;;;;;;5138927;27;20226;-83
2021/03/11 12:30:46;;;;;;;5.75;2.35;;;13.70;99.90;;;;;;5113919;28;20663;-80
2021/03/11 12:33:12;;;;;;;3.92;2.20;;;13.90;99.90;;;;;;5112991;28;20220;-81
2021/03/11 12:35:40;;;;;;;6.93;3.85;;;13.90;99.90;;;;;;5121110;28;20706;-81
2021/03/11 12:38:07;;;;;;;10.25;4.68;;;13.80;99.90;;;;;;5111145;28;20272;-81
2021/03/11 12:40:35;;;;;;;11.18;3.55;;;14.20;99.90;;;;;;5129957;28;20203;-82
2021/03/11 12:43:01;;;;;;;8.15;2.90;;;14.30;99.90;;;;;;5134251;27;20224;-83
2021/03/11 12:45:28;;;;;;;7.68;3.13;;;14.00;99.90;;;;;;5128232;28;20196;-81
2021/03/11 12:47:54;;;;;;;6.90;3.97;;;14.20;99.90;;;;;;5121858;28;20212;-82
2021/03/11 12:50:22;;;;;;;7.15;3.13;;;14.60;99.90;;;;;;5130964;27;20208;-81
2021/03/11 12:52:49;;;;;;;11.30;4.47;;;14.40;99.90;;;;;;5125210;28;20216;-81